createdAt,value
2023-01-08T00:01:04.949Z,7.09
2023-01-08T00:04:32.795Z,7.11
2023-01-08T00:07:59.313Z,7.12
2023-01-08T00:11:27.851Z,7.13
2023-01-08T00:14:55.230Z,7.12
2023-01-08T00:18:22.256Z,7.09
2023-01-08T00:21:50.581Z,7.04
2023-01-08T00:25:18.781Z,6.95
2023-01-08T00:28:46.375Z,6.87
2023-01-08T00:32:13.661Z,6.81
2023-01-08T00:35:43.745Z,6.78
2023-01-08T00:39:11.503Z,6.74
2023-01-08T00:42:38.394Z,6.69
2023-01-08T00:46:06.735Z,6.65
2023-01-08T00:49:36.204Z,6.63
2023-01-08T00:53:04.483Z,6.59
2023-01-08T00:56:31.667Z,6.58
2023-01-08T00:59:58.377Z,6.58
2023-01-08T01:03:26.510Z,6.57
2023-01-08T01:06:55.238Z,6.55
2023-01-08T01:10:22.788Z,6.55
2023-01-08T01:13:52.645Z,6.54
2023-01-08T01:17:20.653Z,6.53
2023-01-08T01:20:48.482Z,6.49
2023-01-08T01:24:16.118Z,6.44
2023-01-08T01:27:43.164Z,6.41
2023-01-08T01:31:12.799Z,6.36
2023-01-08T01:34:39.771Z,6.36
2023-01-08T01:38:08.884Z,6.38
2023-01-08T01:41:42.903Z,6.36
2023-01-08T01:45:21.462Z,6.33
2023-01-08T01:48:53.075Z,6.28
2023-01-08T01:52:23.825Z,6.25
2023-01-08T01:55:52.176Z,6.19
2023-01-08T01:59:20.055Z,6.14
2023-01-08T02:02:48.360Z,6.10
2023-01-08T02:06:28.528Z,6.05
2023-01-08T02:10:03.158Z,5.98
2023-01-08T02:13:36.737Z,5.98
2023-01-08T02:17:04.913Z,5.96
2023-01-08T02:20:37.399Z,5.94
2023-01-08T02:24:11.743Z,5.93
2023-01-08T02:27:42.552Z,5.92
2023-01-08T02:31:10.581Z,5.94
2023-01-08T02:34:38.713Z,5.97
2023-01-08T02:38:06.479Z,5.97
2023-01-08T02:41:43.977Z,5.97
2023-01-08T02:45:23.543Z,6.00
2023-01-08T02:48:55.597Z,5.99
2023-01-08T02:52:25.925Z,5.99
2023-01-08T02:55:57.241Z,6.01
2023-01-08T02:59:27.479Z,5.99
2023-01-08T03:03:03.373Z,5.99
2023-01-08T03:06:32.529Z,5.97
2023-01-08T03:10:00.359Z,5.96
2023-01-08T03:13:33.980Z,5.92
2023-01-08T03:17:06.797Z,5.87
2023-01-08T03:20:37.456Z,5.80
2023-01-08T03:24:06.130Z,5.75
2023-01-08T03:27:35.800Z,5.69
2023-01-08T03:31:04.177Z,5.66
2023-01-08T03:34:35.389Z,5.61
2023-01-08T03:38:08.597Z,5.60
2023-01-08T03:41:38.649Z,5.58
2023-01-08T03:45:06.484Z,5.53
2023-01-08T03:48:36.004Z,5.53
2023-01-08T03:52:05.211Z,5.52
2023-01-08T03:55:31.734Z,5.49
2023-01-08T03:58:58.287Z,5.48
2023-01-08T04:02:25.519Z,5.46
2023-01-08T04:05:52.736Z,5.44
2023-01-08T04:09:19.383Z,5.44
2023-01-08T04:12:47.213Z,5.46
2023-01-08T04:16:14.201Z,5.44
2023-01-08T04:19:41.774Z,5.39
2023-01-08T04:23:08.794Z,5.36
2023-01-08T04:26:35.778Z,5.33
2023-01-08T04:30:03.726Z,5.30
2023-01-08T04:33:30.798Z,5.29
2023-01-08T04:36:58.450Z,5.26
2023-01-08T04:40:25.709Z,5.22
2023-01-08T04:43:53.418Z,5.16
2023-01-08T04:47:20.465Z,5.11
2023-01-08T04:50:47.991Z,5.08
2023-01-08T04:54:15.281Z,5.04
2023-01-08T04:57:42.292Z,5.01
2023-01-08T05:01:15.689Z,4.99
2023-01-08T05:04:41.070Z,4.98
2023-01-08T05:08:08.346Z,4.96
2023-01-08T05:11:35.872Z,4.96
2023-01-08T05:15:05.529Z,4.92
2023-01-08T05:18:33.672Z,4.90
2023-01-08T05:22:01.813Z,4.92
2023-01-08T05:25:29.852Z,4.95
2023-01-08T05:28:59.485Z,4.95
2023-01-08T05:32:29.963Z,4.94
2023-01-08T05:35:58.289Z,4.94
2023-01-08T05:39:42.205Z,4.90
2023-01-08T05:43:13.968Z,4.85
2023-01-08T05:46:41.820Z,4.76
2023-01-08T05:50:10.001Z,4.67
2023-01-08T05:53:36.787Z,4.58
2023-01-08T05:57:03.638Z,4.50
2023-01-08T06:00:30.955Z,4.49
2023-01-08T06:04:02.918Z,4.46
2023-01-08T06:07:32.732Z,4.48
2023-01-08T06:11:02.231Z,4.50
2023-01-08T06:14:31.125Z,4.51
2023-01-08T06:17:58.622Z,4.55
2023-01-08T06:21:27.361Z,4.59
2023-01-08T06:24:56.637Z,4.62
2023-01-08T06:28:23.922Z,4.61
2023-01-08T06:31:50.386Z,4.62
2023-01-08T06:35:20.286Z,4.61
2023-01-08T06:38:47.868Z,4.61
2023-01-08T06:42:14.920Z,4.59
2023-01-08T06:45:41.984Z,4.57
2023-01-08T06:49:08.517Z,4.63
2023-01-08T06:52:35.276Z,4.65
2023-01-08T06:56:02.103Z,4.61
2023-01-08T06:59:29.057Z,4.60
2023-01-08T07:02:56.634Z,4.53
2023-01-08T07:06:24.129Z,4.48
2023-01-08T07:09:51.153Z,4.42
2023-01-08T07:13:18.224Z,4.37
2023-01-08T07:16:45.232Z,4.36
2023-01-08T07:20:13.146Z,4.34
2023-01-08T07:23:42.486Z,4.34
2023-01-08T07:27:09.603Z,4.33
2023-01-08T07:30:37.004Z,4.34
2023-01-08T07:34:03.577Z,4.38
2023-01-08T07:37:30.063Z,4.41
2023-01-08T07:40:58.534Z,4.43
2023-01-08T07:44:25.648Z,4.46
2023-01-08T07:47:55.203Z,4.46
2023-01-08T07:51:22.095Z,4.45
2023-01-08T07:54:48.843Z,4.47
2023-01-08T07:58:16.476Z,4.47
2023-01-08T08:01:45.388Z,4.48
2023-01-08T08:05:13.814Z,4.50
2023-01-08T08:08:42.315Z,4.52
2023-01-08T08:12:10.134Z,4.49
2023-01-08T08:15:40.228Z,4.48
2023-01-08T08:19:08.512Z,4.47
2023-01-08T08:22:36.209Z,4.46
2023-01-08T08:26:05.651Z,4.42
2023-01-08T08:29:32.156Z,4.41
2023-01-08T08:33:02.025Z,4.40
2023-01-08T08:36:33.304Z,4.40
2023-01-08T08:39:59.875Z,4.40
2023-01-08T08:43:27.651Z,4.40
2023-01-08T08:46:54.790Z,4.43
2023-01-08T08:50:22.841Z,4.44
2023-01-08T08:53:49.799Z,4.47
2023-01-08T08:57:16.420Z,4.52
2023-01-08T09:00:46.634Z,4.57
2023-01-08T09:04:13.453Z,4.60
2023-01-08T09:07:42.200Z,4.61
2023-01-08T09:11:08.970Z,4.63
2023-01-08T09:14:36.328Z,4.63
2023-01-08T09:18:03.122Z,4.66
2023-01-08T09:21:30.693Z,4.70
2023-01-08T09:24:57.608Z,4.73
2023-01-08T09:28:24.798Z,4.77
2023-01-08T09:31:51.903Z,4.78
2023-01-08T09:35:22.152Z,4.81
2023-01-08T09:38:49.415Z,4.86
2023-01-08T09:42:17.317Z,4.92
2023-01-08T09:45:47.554Z,4.95
2023-01-08T09:49:22.541Z,4.96
2023-01-08T09:52:50.766Z,4.98
2023-01-08T09:56:21.254Z,4.99
2023-01-08T09:59:49.805Z,5.01
2023-01-08T10:03:17.324Z,5.01
2023-01-08T10:06:48.093Z,5.03
2023-01-08T10:10:22.091Z,5.00
2023-01-08T10:13:55.435Z,4.99
2023-01-08T10:17:28.747Z,5.00
2023-01-08T10:20:55.258Z,5.01
2023-01-08T10:24:34.571Z,5.03
2023-01-08T10:28:03.398Z,5.06
2023-01-08T10:31:30.794Z,5.09
2023-01-08T10:35:00.663Z,5.15
2023-01-08T10:38:35.896Z,5.20
2023-01-08T10:42:08.522Z,5.30
2023-01-08T10:45:36.122Z,5.35
2023-01-08T10:49:08.067Z,5.42
2023-01-08T10:52:39.176Z,5.44
2023-01-08T10:56:19.048Z,5.49
2023-01-08T10:59:46.108Z,5.52
2023-01-08T11:03:25.013Z,5.54
2023-01-08T11:06:52.115Z,5.55
2023-01-08T11:10:28.993Z,5.60
2023-01-08T11:14:02.477Z,5.67
2023-01-08T11:17:28.779Z,5.71
2023-01-08T11:21:08.044Z,5.68
2023-01-08T11:24:37.214Z,5.65
2023-01-08T11:28:06.245Z,5.62
2023-01-08T11:31:40.971Z,5.63
2023-01-08T11:35:14.126Z,5.67
2023-01-08T11:38:39.291Z,5.71
2023-01-08T11:42:22.113Z,5.71
2023-01-08T11:46:03.092Z,5.76
2023-01-08T11:49:57.052Z,5.80
2023-01-08T11:53:30.340Z,5.86
2023-01-08T11:57:09.948Z,5.89
2023-01-08T12:00:46.073Z,5.94
2023-01-08T12:04:38.472Z,6.00
2023-01-08T12:08:14.488Z,6.02
2023-01-08T12:11:48.430Z,6.06
2023-01-08T12:15:17.935Z,6.11
2023-01-08T12:19:04.213Z,6.09
2023-01-08T12:22:43.611Z,6.09
2023-01-08T12:26:27.657Z,6.13
2023-01-08T12:30:09.719Z,6.19
2023-01-08T12:33:43.759Z,6.25
2023-01-08T12:37:17.021Z,6.25
2023-01-08T12:40:49.054Z,6.30
2023-01-08T12:44:23.326Z,6.35
2023-01-08T12:47:55.356Z,6.39
2023-01-08T12:51:33.316Z,6.43
2023-01-08T12:55:24.982Z,6.47
2023-01-08T12:59:01.063Z,6.46
2023-01-08T13:02:39.118Z,6.43
2023-01-08T13:06:13.660Z,6.39
2023-01-08T13:09:43.702Z,6.39
2023-01-08T13:13:29.675Z,6.38
2023-01-08T13:17:08.251Z,6.38
2023-01-08T13:20:36.171Z,6.39
2023-01-08T13:24:27.150Z,6.41
2023-01-08T13:27:56.744Z,6.45
2023-01-08T13:31:31.100Z,6.48
2023-01-08T13:35:21.848Z,6.54
2023-01-08T13:39:00.821Z,6.58
2023-01-08T13:42:29.486Z,6.62
2023-01-08T13:46:15.306Z,6.65
2023-01-08T13:49:52.777Z,6.66
2023-01-08T13:53:22.605Z,6.69
2023-01-08T13:56:55.371Z,6.69
2023-01-08T14:00:31.558Z,6.73
2023-01-08T14:03:59.517Z,6.74
2023-01-08T14:07:27.904Z,6.72
2023-01-08T14:10:55.482Z,6.70
2023-01-08T14:14:24.520Z,6.69
2023-01-08T14:17:51.662Z,6.67
2023-01-08T14:21:22.394Z,6.64
2023-01-08T14:24:55.480Z,6.63
2023-01-08T14:28:25.930Z,6.62
2023-01-08T14:31:54.529Z,6.59
2023-01-08T14:35:24.848Z,6.58
2023-01-08T14:38:52.661Z,6.59
2023-01-08T14:42:45.939Z,6.61
2023-01-08T14:46:20.759Z,6.60
2023-01-08T14:49:54.558Z,6.60
2023-01-08T14:53:29.119Z,6.61
2023-01-08T14:56:59.530Z,6.60
2023-01-08T15:00:30.535Z,6.61
2023-01-08T15:04:10.821Z,6.61
2023-01-08T15:07:37.979Z,6.61
2023-01-08T15:11:07.010Z,6.62
2023-01-08T15:14:37.260Z,6.65
2023-01-08T15:18:06.228Z,6.66
2023-01-08T15:21:33.579Z,6.64
2023-01-08T15:25:04.520Z,6.62
2023-01-08T15:28:33.475Z,6.58
2023-01-08T15:32:12.749Z,6.57
2023-01-08T15:35:40.736Z,6.55
2023-01-08T15:39:08.093Z,6.52
2023-01-08T15:42:53.279Z,6.48
2023-01-08T15:46:20.436Z,6.48
2023-01-08T15:49:47.504Z,6.50
2023-01-08T15:53:18.325Z,6.52
2023-01-08T15:56:49.994Z,6.55
2023-01-08T16:00:20.021Z,6.57
2023-01-08T16:03:47.526Z,6.60
2023-01-08T16:07:13.930Z,6.62
2023-01-08T16:10:43.084Z,6.64
2023-01-08T16:14:11.911Z,6.65
2023-01-08T16:17:39.628Z,6.69
2023-01-08T16:21:07.213Z,6.73
2023-01-08T16:24:34.889Z,6.73
2023-01-08T16:28:03.320Z,6.73
2023-01-08T16:31:30.767Z,6.70
2023-01-08T16:34:58.185Z,6.68
2023-01-08T16:38:27.388Z,6.62
2023-01-08T16:41:55.471Z,6.56
2023-01-08T16:45:22.522Z,6.49
2023-01-08T16:48:50.928Z,6.44
2023-01-08T16:52:18.663Z,6.41
2023-01-08T16:55:46.066Z,6.38
2023-01-08T16:59:30.957Z,6.36
2023-01-08T17:03:02.479Z,6.37
2023-01-08T17:06:29.823Z,6.36
2023-01-08T17:09:57.438Z,6.40
2023-01-08T17:13:25.547Z,6.42
2023-01-08T17:16:52.137Z,6.44
2023-01-08T17:20:20.212Z,6.45
2023-01-08T17:23:48.540Z,6.46
2023-01-08T17:27:16.128Z,6.47
2023-01-08T17:30:43.840Z,6.48
2023-01-08T17:34:13.606Z,6.48
2023-01-08T17:37:40.752Z,6.49
2023-01-08T17:41:10.323Z,6.48
2023-01-08T17:44:37.231Z,6.47
2023-01-08T17:48:03.993Z,6.43
2023-01-08T17:51:30.489Z,6.38
2023-01-08T17:54:57.169Z,6.32
2023-01-08T17:58:23.715Z,6.26
2023-01-08T18:01:54.282Z,6.26
2023-01-08T18:05:22.257Z,6.24
2023-01-08T18:08:48.585Z,6.26
2023-01-08T18:12:14.964Z,6.26
2023-01-08T18:15:41.459Z,6.26
2023-01-08T18:19:08.841Z,6.25
2023-01-08T18:22:36.045Z,6.26
2023-01-08T18:26:12.413Z,6.26
2023-01-08T18:29:41.467Z,6.26
2023-01-08T18:33:08.568Z,6.25
2023-01-08T18:36:37.316Z,6.26
2023-01-08T18:40:08.935Z,6.28
2023-01-08T18:43:41.846Z,6.26
2023-01-08T18:47:12.742Z,6.27
2023-01-08T18:50:43.968Z,6.26
2023-01-08T18:54:11.850Z,6.26
2023-01-08T18:57:50.355Z,6.25
2023-01-08T19:01:19.200Z,6.20
2023-01-08T19:04:45.687Z,6.15
2023-01-08T19:08:15.311Z,6.11
2023-01-08T19:11:45.257Z,6.08
2023-01-08T19:15:16.551Z,6.08
2023-01-08T19:18:44.870Z,6.07
2023-01-08T19:22:12.408Z,6.08
2023-01-08T19:25:41.760Z,6.09
2023-01-08T19:29:11.684Z,6.08
2023-01-08T19:32:40.105Z,6.07
2023-01-08T19:36:12.886Z,6.11
2023-01-08T19:39:44.921Z,6.12
2023-01-08T19:43:31.380Z,6.13
2023-01-08T19:47:01.086Z,6.12
2023-01-08T19:50:37.159Z,6.08
2023-01-08T19:54:04.761Z,6.04
2023-01-08T19:57:32.568Z,6.02
2023-01-08T20:01:06.770Z,6.01
2023-01-08T20:04:36.456Z,5.94
2023-01-08T20:08:04.575Z,5.90
2023-01-08T20:11:38.031Z,5.88
2023-01-08T20:15:08.300Z,5.85
2023-01-08T20:18:37.604Z,5.81
2023-01-08T20:22:05.891Z,5.78
2023-01-08T20:25:37.396Z,5.77
2023-01-08T20:29:06.060Z,5.80
2023-01-08T20:32:35.045Z,5.79
2023-01-08T20:36:02.434Z,5.80
2023-01-08T20:39:29.892Z,5.80
2023-01-08T20:42:57.349Z,5.80
2023-01-08T20:46:30.001Z,5.81
2023-01-08T20:49:58.411Z,5.80
2023-01-08T20:53:25.496Z,5.82
2023-01-08T20:56:57.724Z,5.84
2023-01-08T21:00:26.237Z,5.84
2023-01-08T21:03:56.127Z,5.79
2023-01-08T21:07:24.058Z,5.76
2023-01-08T21:11:00.279Z,5.71
2023-01-08T21:14:27.997Z,5.65
2023-01-08T21:17:54.661Z,5.61
2023-01-08T21:21:24.382Z,5.56
2023-01-08T21:24:53.508Z,5.55
2023-01-08T21:28:20.870Z,5.54
2023-01-08T21:31:49.601Z,5.55
2023-01-08T21:35:16.891Z,5.58
2023-01-08T21:38:47.084Z,5.60
2023-01-08T21:42:32.079Z,5.62
2023-01-08T21:46:07.172Z,5.62
2023-01-08T21:49:41.987Z,5.64
2023-01-08T21:53:27.866Z,5.64
2023-01-08T21:56:54.744Z,5.69
2023-01-08T22:00:24.668Z,5.72
2023-01-08T22:03:51.797Z,5.71
2023-01-08T22:07:21.032Z,5.66
2023-01-08T22:10:47.806Z,5.63
2023-01-08T22:14:14.648Z,5.60
2023-01-08T22:17:41.987Z,5.57
2023-01-08T22:21:11.560Z,5.54
2023-01-08T22:24:38.784Z,5.51
2023-01-08T22:28:05.354Z,5.48
2023-01-08T22:31:36.723Z,5.45
2023-01-08T22:35:03.811Z,5.43
2023-01-08T22:38:30.538Z,5.43
2023-01-08T22:41:57.326Z,5.44
2023-01-08T22:45:24.315Z,5.46
2023-01-08T22:48:51.154Z,5.47
2023-01-08T22:52:19.531Z,5.47
2023-01-08T22:55:47.170Z,5.49
2023-01-08T22:59:13.509Z,5.51
2023-01-08T23:02:40.718Z,5.51
2023-01-08T23:06:12.722Z,5.50
2023-01-08T23:09:39.105Z,5.53
2023-01-08T23:13:05.989Z,5.55
2023-01-08T23:16:33.109Z,5.55
2023-01-08T23:20:02.060Z,5.55
2023-01-08T23:23:30.941Z,5.54
2023-01-08T23:26:57.971Z,5.49
2023-01-08T23:30:24.843Z,5.42
2023-01-08T23:33:51.394Z,5.36
2023-01-08T23:37:18.004Z,5.32
2023-01-08T23:40:46.757Z,5.29
2023-01-08T23:44:15.403Z,5.27
2023-01-08T23:47:42.225Z,5.26
2023-01-08T23:51:09.308Z,5.27
2023-01-08T23:54:36.079Z,5.29
2023-01-08T23:58:02.711Z,5.31
